createdAt,value
2023-04-18T00:01:53.496Z,2
2023-04-18T00:03:53.744Z,1
2023-04-18T00:05:53.568Z,1
2023-04-18T00:07:53.689Z,1
2023-04-18T00:09:53.760Z,2
2023-04-18T00:11:53.863Z,1
2023-04-18T00:13:53.929Z,1
2023-04-18T00:15:54.017Z,1
2023-04-18T00:19:54.202Z,1
2023-04-18T00:25:54.468Z,1
2023-04-18T00:30:24.719Z,1
2023-04-18T00:32:24.825Z,1
2023-04-18T00:34:24.911Z,1
2023-04-18T00:36:25.012Z,1
2023-04-18T00:38:25.136Z,2
2023-04-18T00:40:25.224Z,2
2023-04-18T00:42:25.429Z,2
2023-04-18T00:46:25.577Z,1
2023-04-18T00:50:25.791Z,2
2023-04-18T00:54:26.037Z,1
2023-04-18T00:56:26.173Z,2
2023-04-18T01:00:26.363Z,1
2023-04-18T01:02:26.670Z,2
2023-04-18T01:04:26.820Z,2
2023-04-18T01:10:26.916Z,2
2023-04-18T01:12:27.009Z,1
2023-04-18T01:16:27.314Z,1
2023-04-18T01:18:27.369Z,1
2023-04-18T01:22:27.574Z,1
2023-04-18T01:24:27.668Z,1
2023-04-18T01:28:27.967Z,1
2023-04-18T01:32:28.164Z,1
2023-04-18T01:34:28.225Z,1
2023-04-18T01:36:28.370Z,1
2023-04-18T01:40:28.570Z,1
2023-04-18T01:42:28.667Z,1
2023-04-18T01:44:28.785Z,1
2023-04-18T01:56:29.456Z,1
2023-04-18T02:00:29.673Z,1
2023-04-18T02:02:30.006Z,1
2023-04-18T02:04:29.883Z,1
2023-04-18T02:06:29.988Z,1
2023-04-18T02:08:30.120Z,1
2023-04-18T02:10:30.260Z,1
2023-04-18T02:12:30.324Z,1
2023-04-18T02:14:30.444Z,1
2023-04-18T02:16:30.614Z,1
2023-04-18T02:18:30.692Z,1
2023-04-18T02:24:30.988Z,1
2023-04-18T02:26:31.125Z,1
2023-04-18T02:28:31.182Z,1
2023-04-18T02:32:31.501Z,1
2023-04-18T02:34:31.623Z,1
2023-04-18T02:36:31.605Z,1
2023-04-18T02:38:31.745Z,1
2023-04-18T02:42:31.943Z,1
2023-04-18T02:44:32.018Z,1
2023-04-18T02:46:32.246Z,1
2023-04-18T02:50:32.344Z,1
2023-04-18T02:52:32.484Z,1
2023-04-18T02:54:32.530Z,1
2023-04-18T02:56:32.771Z,1
2023-04-18T02:58:32.746Z,1
2023-04-18T03:00:32.828Z,1
2023-04-18T03:02:33.071Z,1
2023-04-18T03:04:33.115Z,1
2023-04-18T03:06:33.132Z,1
2023-04-18T03:10:33.338Z,1
2023-04-18T03:12:33.424Z,1
2023-04-18T03:14:33.601Z,1
2023-04-18T03:16:33.618Z,1
2023-04-18T03:18:33.760Z,1
2023-04-18T03:20:33.820Z,1
2023-04-18T03:22:33.950Z,1
2023-04-18T03:24:34.038Z,1
2023-04-18T03:26:34.114Z,1
2023-04-18T03:30:34.339Z,0
2023-04-18T03:32:34.469Z,1
2023-04-18T03:34:34.557Z,1
2023-04-18T03:36:34.647Z,1
2023-04-18T03:42:34.903Z,1
2023-04-18T03:44:35.023Z,1
2023-04-18T03:46:35.213Z,1
2023-04-18T03:50:35.312Z,2
2023-04-18T03:52:35.410Z,3
2023-04-18T03:54:35.528Z,2
2023-04-18T03:56:35.641Z,3
2023-04-18T03:58:35.799Z,2
2023-04-18T04:00:35.805Z,1
2023-04-18T04:02:36.064Z,1
2023-04-18T04:04:36.042Z,1
2023-04-18T04:06:36.078Z,1
2023-04-18T04:12:36.455Z,1
2023-04-18T04:20:36.945Z,1
2023-04-18T04:24:36.903Z,1
2023-04-18T04:26:36.991Z,1
2023-04-18T04:28:37.135Z,1
2023-04-18T04:30:37.174Z,1
2023-04-18T04:32:37.317Z,1
2023-04-18T04:34:37.389Z,2
2023-04-18T04:36:37.474Z,1
2023-04-18T04:38:37.551Z,1
2023-04-18T04:40:37.651Z,2
2023-04-18T04:42:37.765Z,1
2023-04-18T04:44:37.867Z,1
2023-04-18T04:46:37.976Z,1
2023-04-18T04:48:38.071Z,1
2023-04-18T04:50:38.143Z,1
2023-04-18T05:02:38.833Z,1
2023-04-18T05:06:40.195Z,1
2023-04-18T05:08:38.882Z,1
2023-04-18T05:10:39.007Z,2
2023-04-18T05:12:39.074Z,1
2023-04-18T05:14:39.162Z,2
2023-04-18T05:16:39.272Z,1
2023-04-18T05:18:39.570Z,1
2023-04-18T05:20:39.597Z,1
2023-04-18T05:22:39.588Z,1
2023-04-18T05:24:39.586Z,1
2023-04-18T05:28:39.801Z,1
2023-04-18T05:30:39.994Z,1
2023-04-18T05:33:10.003Z,1
2023-04-18T05:37:10.259Z,2
2023-04-18T05:39:10.354Z,2
2023-04-18T05:41:10.462Z,2
2023-04-18T05:49:10.922Z,2
2023-04-18T05:53:11.208Z,1
2023-04-18T05:55:11.312Z,2
2023-04-18T06:01:11.641Z,2
2023-04-18T06:05:12.278Z,2
2023-04-18T06:07:12.055Z,2
2023-04-18T06:09:12.112Z,1
2023-04-18T06:11:12.200Z,1
2023-04-18T06:15:12.668Z,2
2023-04-18T06:17:12.592Z,2
2023-04-18T06:19:12.679Z,1
2023-04-18T06:21:12.768Z,2
2023-04-18T06:23:12.886Z,2
2023-04-18T06:25:12.988Z,2
2023-04-18T06:27:24.082Z,2
2023-04-18T06:29:13.277Z,1
2023-04-18T06:31:13.328Z,2
2023-04-18T06:35:13.531Z,1
2023-04-18T06:37:13.667Z,1
2023-04-18T06:39:13.717Z,1
2023-04-18T06:41:13.913Z,2
2023-04-18T06:43:13.994Z,1
2023-04-18T06:47:14.190Z,2
2023-04-18T06:49:14.290Z,2
2023-04-18T06:51:14.590Z,2
2023-04-18T06:53:14.515Z,2
2023-04-18T06:55:14.589Z,2
2023-04-18T06:57:14.739Z,1
2023-04-18T06:59:14.985Z,3
2023-04-18T07:01:15.039Z,2
2023-04-18T07:03:15.189Z,2
2023-04-18T07:05:15.105Z,1
2023-04-18T07:07:15.226Z,2
2023-04-18T07:09:15.327Z,1
2023-04-18T07:11:15.349Z,1
2023-04-18T07:13:15.497Z,2
2023-04-18T07:15:15.594Z,2
2023-04-18T07:17:15.717Z,2
2023-04-18T07:21:15.886Z,2
2023-04-18T07:23:16.018Z,1
2023-04-18T07:25:16.198Z,1
2023-04-18T07:27:16.222Z,1
2023-04-18T07:29:16.297Z,1
2023-04-18T07:31:16.513Z,1
2023-04-18T07:33:16.536Z,2
2023-04-18T07:35:16.784Z,2
2023-04-18T07:37:16.723Z,2
2023-04-18T07:39:16.813Z,2
2023-04-18T07:41:16.936Z,2
2023-04-18T07:43:17.259Z,1
2023-04-18T07:45:17.132Z,2
2023-04-18T07:47:17.196Z,1
2023-04-18T07:51:17.381Z,2
2023-04-18T07:53:17.476Z,2
2023-04-18T07:55:17.590Z,3
2023-04-18T07:57:17.763Z,3
2023-04-18T07:59:17.812Z,2
2023-04-18T08:01:17.915Z,1
2023-04-18T08:05:18.217Z,1
2023-04-18T08:07:18.228Z,1
2023-04-18T08:09:18.270Z,1
2023-04-18T08:11:18.389Z,1
2023-04-18T08:15:18.590Z,1
2023-04-18T08:19:18.786Z,1
2023-04-18T08:21:18.900Z,1
2023-04-18T08:23:19.034Z,1
2023-04-18T08:25:19.054Z,1
2023-04-18T08:27:19.146Z,1
2023-04-18T08:29:19.279Z,1
2023-04-18T08:31:19.357Z,1
2023-04-18T08:33:19.437Z,1
2023-04-18T08:35:19.560Z,1
2023-04-18T08:37:19.644Z,1
2023-04-18T08:39:19.739Z,2
2023-04-18T08:41:19.841Z,1
2023-04-18T08:45:20.215Z,2
2023-04-18T08:47:20.160Z,1
2023-04-18T08:49:20.223Z,1
2023-04-18T08:51:20.316Z,1
2023-04-18T08:53:20.446Z,2
2023-04-18T08:55:20.512Z,2
2023-04-18T08:57:20.634Z,2
2023-04-18T08:59:20.724Z,1
2023-04-18T09:01:20.853Z,1
2023-04-18T09:03:20.934Z,1
2023-04-18T09:05:20.990Z,1
2023-04-18T09:07:21.159Z,1
2023-04-18T09:09:21.146Z,1
2023-04-18T09:11:21.241Z,1
2023-04-18T09:13:22.451Z,1
2023-04-18T09:15:21.423Z,1
2023-04-18T09:17:21.495Z,1
2023-04-18T09:19:21.610Z,1
2023-04-18T09:21:21.665Z,1
2023-04-18T09:23:21.774Z,1
2023-04-18T09:25:21.866Z,1
2023-04-18T09:27:22.072Z,1
2023-04-18T09:29:22.053Z,1
2023-04-18T09:31:22.179Z,1
2023-04-18T09:33:22.215Z,2
2023-04-18T09:35:22.322Z,2
2023-04-18T09:37:22.406Z,2
2023-04-18T09:41:22.586Z,1
2023-04-18T09:43:22.671Z,1
2023-04-18T09:45:22.822Z,2
2023-04-18T09:47:22.845Z,1
2023-04-18T09:49:22.917Z,1
2023-04-18T09:51:23.022Z,1
2023-04-18T09:53:23.112Z,2
2023-04-18T09:55:23.178Z,1
2023-04-18T09:57:23.277Z,2
2023-04-18T09:59:23.344Z,2
2023-04-18T10:01:23.497Z,2
2023-04-18T10:03:23.664Z,1
2023-04-18T10:05:23.605Z,1
2023-04-18T10:07:23.666Z,2
2023-04-18T10:09:53.798Z,1
2023-04-18T10:11:53.886Z,2
2023-04-18T10:13:54.020Z,2
2023-04-18T10:15:54.174Z,2
2023-04-18T10:18:03.721Z,1
2023-04-18T10:19:54.365Z,2
2023-04-18T10:21:54.449Z,1
2023-04-18T10:23:54.571Z,1
2023-04-18T10:25:54.707Z,1
2023-04-18T10:29:54.927Z,1
2023-04-18T10:31:55.114Z,2
2023-04-18T10:34:03.966Z,1
2023-04-18T10:35:55.262Z,1
2023-04-18T10:37:55.384Z,1
2023-04-18T10:41:55.582Z,1
2023-04-18T10:43:55.669Z,2
2023-04-18T10:45:55.798Z,2
2023-04-18T10:49:55.964Z,2
2023-04-18T10:51:56.064Z,2
2023-04-18T10:53:56.210Z,2
2023-04-18T10:55:56.337Z,2
2023-04-18T10:57:56.442Z,2
2023-04-18T10:59:56.523Z,2
2023-04-18T11:01:56.656Z,3
2023-04-18T11:03:56.786Z,2
2023-04-18T11:05:56.852Z,2
2023-04-18T11:07:56.924Z,2
2023-04-18T11:09:57.071Z,3
2023-04-18T11:11:57.162Z,2
2023-04-18T11:15:57.322Z,2
2023-04-18T11:17:57.624Z,2
2023-04-18T11:19:57.529Z,2
2023-04-18T11:21:57.643Z,2
2023-04-18T11:25:57.850Z,1
2023-04-18T11:27:57.994Z,1
2023-04-18T11:29:58.069Z,2
2023-04-18T11:31:58.900Z,1
2023-04-18T11:33:58.313Z,2
2023-04-18T11:35:58.362Z,2
2023-04-18T11:37:58.465Z,2
2023-04-18T11:39:58.571Z,1
2023-04-18T11:41:58.666Z,2
2023-04-18T11:43:58.765Z,2
2023-04-18T11:45:58.926Z,2
2023-04-18T11:47:59.106Z,2
2023-04-18T11:49:59.172Z,2
2023-04-18T11:51:59.237Z,2
2023-04-18T11:57:59.521Z,2
2023-04-18T11:59:59.622Z,2
2023-04-18T12:02:08.851Z,1
2023-04-18T12:04:00.102Z,1
2023-04-18T12:08:00.049Z,2
2023-04-18T12:10:00.152Z,1
2023-04-18T12:12:00.206Z,1
2023-04-18T12:14:01.204Z,6
2023-04-18T12:16:00.429Z,4
2023-04-18T12:18:00.612Z,4
2023-04-18T12:20:00.590Z,3
2023-04-18T12:22:00.766Z,2
2023-04-18T12:24:00.794Z,2
2023-04-18T12:26:00.926Z,2
2023-04-18T12:28:00.976Z,1
2023-04-18T12:30:01.048Z,1
2023-04-18T12:32:01.300Z,1
2023-04-18T12:36:01.329Z,1
2023-04-18T12:38:01.443Z,2
2023-04-18T12:40:01.513Z,2
2023-04-18T12:42:01.626Z,1
2023-04-18T12:44:01.800Z,2
2023-04-18T12:46:01.913Z,2
2023-04-18T12:48:01.898Z,2
2023-04-18T12:50:02.006Z,2
2023-04-18T12:52:02.303Z,2
2023-04-18T12:54:02.168Z,1
2023-04-18T12:56:02.327Z,2
2023-04-18T13:00:02.435Z,2
2023-04-18T13:02:02.604Z,2
2023-04-18T13:04:11.658Z,2
2023-04-18T13:06:02.744Z,2
2023-04-18T13:08:32.866Z,2
2023-04-18T13:10:32.963Z,2
2023-04-18T13:12:33.068Z,2
2023-04-18T13:14:33.204Z,2
2023-04-18T13:16:33.327Z,2
2023-04-18T13:18:33.437Z,3
2023-04-18T13:20:33.561Z,2
2023-04-18T13:22:33.657Z,2
2023-04-18T13:24:33.865Z,2
2023-04-18T13:26:34.022Z,2
2023-04-18T13:28:33.993Z,2
2023-04-18T13:30:34.174Z,2
2023-04-18T13:32:34.271Z,1
2023-04-18T13:34:34.390Z,2
2023-04-18T13:36:34.499Z,2
2023-04-18T13:38:34.572Z,2
2023-04-18T13:40:34.653Z,1
2023-04-18T13:42:34.784Z,2
2023-04-18T13:44:34.961Z,2
2023-04-18T13:46:35.131Z,2
2023-04-18T13:50:35.267Z,2
2023-04-18T13:52:35.341Z,2
2023-04-18T13:56:35.541Z,2
2023-04-18T13:58:35.621Z,2
2023-04-18T14:00:35.747Z,2
2023-04-18T14:02:35.966Z,2
2023-04-18T14:04:36.087Z,2
2023-04-18T14:06:36.054Z,2
2023-04-18T14:08:36.261Z,2
2023-04-18T14:10:36.351Z,2
2023-04-18T14:12:36.431Z,2
2023-04-18T14:14:36.516Z,2
2023-04-18T14:16:36.606Z,3
2023-04-18T14:18:36.704Z,2
2023-04-18T14:22:37.002Z,3
2023-04-18T14:24:37.050Z,2
2023-04-18T14:26:37.102Z,2
2023-04-18T14:30:37.339Z,2
2023-04-18T14:34:38.850Z,2
2023-04-18T14:36:37.631Z,2
2023-04-18T14:38:37.745Z,2
2023-04-18T14:40:37.843Z,2
2023-04-18T14:42:37.944Z,1
2023-04-18T14:44:38.051Z,1
2023-04-18T14:46:38.190Z,2
2023-04-18T14:48:38.229Z,2
2023-04-18T14:50:38.369Z,2
2023-04-18T14:56:38.607Z,2
2023-04-18T14:58:38.696Z,2
2023-04-18T15:00:38.817Z,2
2023-04-18T15:04:39.013Z,2
2023-04-18T15:06:39.103Z,2
2023-04-18T15:08:39.196Z,2
2023-04-18T15:12:39.425Z,3
2023-04-18T15:14:39.495Z,2
2023-04-18T15:16:39.609Z,2
2023-04-18T15:18:39.673Z,2
2023-04-18T15:20:39.743Z,2
2023-04-18T15:22:39.840Z,2
2023-04-18T15:24:39.914Z,2
2023-04-18T15:26:40.010Z,2
2023-04-18T15:28:40.117Z,2
2023-04-18T15:30:40.227Z,2
2023-04-18T15:34:40.385Z,2
2023-04-18T15:36:40.464Z,2
2023-04-18T15:38:40.580Z,3
2023-04-18T15:40:40.724Z,2
2023-04-18T15:42:40.752Z,2
2023-04-18T15:44:40.841Z,2
2023-04-18T15:46:41.102Z,3
2023-04-18T15:48:41.034Z,2
2023-04-18T15:50:41.090Z,2
2023-04-18T15:52:41.170Z,2
2023-04-18T15:54:41.269Z,3
2023-04-18T15:56:41.371Z,3
2023-04-18T16:00:41.580Z,3
2023-04-18T16:02:41.724Z,2
2023-04-18T16:04:41.766Z,4
2023-04-18T16:07:11.873Z,2
2023-04-18T16:09:11.974Z,3
2023-04-18T16:11:12.096Z,3
2023-04-18T16:13:12.204Z,4
2023-04-18T16:15:12.349Z,4
2023-04-18T16:19:12.608Z,3
2023-04-18T16:21:12.712Z,3
2023-04-18T16:23:12.835Z,3
2023-04-18T16:25:12.954Z,4
2023-04-18T16:27:13.056Z,4
2023-04-18T16:29:13.182Z,4
2023-04-18T16:31:13.300Z,4
2023-04-18T16:33:13.520Z,5
2023-04-18T16:35:13.542Z,4
2023-04-18T16:37:13.745Z,3
2023-04-18T16:39:13.741Z,3
2023-04-18T16:41:13.861Z,4
2023-04-18T16:43:13.959Z,5
2023-04-18T16:45:14.116Z,5
2023-04-18T16:47:14.183Z,6
2023-04-18T16:49:14.308Z,5
2023-04-18T16:51:14.441Z,5
2023-04-18T16:53:14.548Z,4
2023-04-18T16:55:14.642Z,3
2023-04-18T16:57:14.754Z,3
2023-04-18T16:59:14.921Z,4
2023-04-18T17:01:15.025Z,3
2023-04-18T17:03:15.128Z,3
2023-04-18T17:05:15.160Z,5
2023-04-18T17:07:15.297Z,3
2023-04-18T17:09:15.534Z,4
2023-04-18T17:11:15.501Z,4
2023-04-18T17:13:15.609Z,5
2023-04-18T17:15:15.848Z,4
2023-04-18T17:17:15.842Z,4
2023-04-18T17:21:16.058Z,4
2023-04-18T17:23:16.149Z,4
2023-04-18T17:25:16.317Z,6
2023-04-18T17:27:16.387Z,5
2023-04-18T17:29:16.718Z,11
2023-04-18T17:31:16.640Z,9
2023-04-18T17:33:16.722Z,8
2023-04-18T17:35:16.846Z,9
2023-04-18T17:37:16.909Z,10
2023-04-18T17:39:16.991Z,5
2023-04-18T17:41:17.114Z,4
2023-04-18T17:43:17.346Z,4
2023-04-18T17:47:17.439Z,4
2023-04-18T17:49:17.473Z,5
2023-04-18T17:51:17.669Z,6
2023-04-18T17:53:17.688Z,5
2023-04-18T17:55:17.778Z,5
2023-04-18T17:57:17.891Z,6
2023-04-18T17:59:18.000Z,5
2023-04-18T18:01:18.108Z,5
2023-04-18T18:03:18.297Z,5
2023-04-18T18:05:18.277Z,6
2023-04-18T18:07:18.421Z,5
2023-04-18T18:09:18.539Z,7
2023-04-18T18:11:18.586Z,11
2023-04-18T18:13:18.698Z,10
2023-04-18T18:15:18.816Z,23
2023-04-18T18:17:18.895Z,24
2023-04-18T18:19:19.034Z,20
2023-04-18T18:21:19.077Z,17
2023-04-18T18:23:19.150Z,16
2023-04-18T18:25:19.289Z,12
2023-04-18T18:27:19.366Z,11
2023-04-18T18:29:19.487Z,9
2023-04-18T18:31:19.608Z,8
2023-04-18T18:35:19.827Z,8
2023-04-18T18:37:19.831Z,8
2023-04-18T18:39:19.923Z,11
2023-04-18T18:41:20.045Z,17
2023-04-18T18:43:20.194Z,13
2023-04-18T18:45:20.227Z,13
2023-04-18T18:47:20.335Z,11
2023-04-18T18:49:20.416Z,11
2023-04-18T18:51:20.504Z,10
2023-04-18T18:53:20.609Z,9
2023-04-18T18:55:20.688Z,7
2023-04-18T18:57:20.833Z,5
2023-04-18T18:59:20.920Z,5
2023-04-18T19:01:20.988Z,5
2023-04-18T19:03:21.271Z,6
2023-04-18T19:05:21.214Z,6
2023-04-18T19:07:21.284Z,7
2023-04-18T19:09:21.411Z,7
2023-04-18T19:11:21.490Z,6
2023-04-18T19:13:21.595Z,7
2023-04-18T19:15:21.680Z,7
2023-04-18T19:17:21.834Z,8
2023-04-18T19:19:21.886Z,7
2023-04-18T19:21:21.943Z,7
2023-04-18T19:23:22.073Z,6
2023-04-18T19:25:22.132Z,6
2023-04-18T19:27:22.249Z,8
2023-04-18T19:29:22.351Z,8
2023-04-18T19:31:22.479Z,6
2023-04-18T19:33:22.500Z,6
2023-04-18T19:35:22.604Z,5
2023-04-18T19:37:22.708Z,4
2023-04-18T19:39:22.795Z,5
2023-04-18T19:41:22.900Z,5
2023-04-18T19:43:22.971Z,5
2023-04-18T19:45:23.058Z,8
2023-04-18T19:47:23.179Z,7
2023-04-18T19:51:23.352Z,6
2023-04-18T19:53:23.422Z,7
2023-04-18T19:55:23.489Z,6
2023-04-18T19:57:23.587Z,5
2023-04-18T19:59:23.663Z,5
2023-04-18T20:01:23.821Z,5
2023-04-18T20:03:24.023Z,5
2023-04-18T20:07:26.160Z,5
2023-04-18T20:09:24.120Z,6
2023-04-18T20:11:24.207Z,6
2023-04-18T20:13:24.282Z,6
2023-04-18T20:15:24.407Z,7
2023-04-18T20:17:24.468Z,9
2023-04-18T20:19:24.597Z,9
2023-04-18T20:21:24.633Z,9
2023-04-18T20:25:24.808Z,9
2023-04-18T20:27:24.883Z,9
2023-04-18T20:29:24.970Z,8
2023-04-18T20:31:55.164Z,9
2023-04-18T20:33:55.246Z,8
2023-04-18T20:35:55.370Z,7
2023-04-18T20:37:55.471Z,7
2023-04-18T20:41:55.754Z,8
2023-04-18T20:45:55.962Z,9
2023-04-18T20:47:56.173Z,8
2023-04-18T20:49:56.214Z,10
2023-04-18T20:51:56.289Z,16
2023-04-18T20:53:56.413Z,14
2023-04-18T20:55:56.524Z,17
2023-04-18T20:57:56.631Z,15
2023-04-18T20:59:56.714Z,14
2023-04-18T21:01:56.897Z,11
2023-04-18T21:03:57.124Z,10
2023-04-18T21:05:57.119Z,9
2023-04-18T21:09:57.328Z,9
2023-04-18T21:11:57.420Z,8
2023-04-18T21:13:57.516Z,7
2023-04-18T21:15:57.677Z,7
2023-04-18T21:17:57.802Z,6
2023-04-18T21:19:57.879Z,6
2023-04-18T21:21:57.996Z,5
2023-04-18T21:23:58.071Z,5
2023-04-18T21:25:58.196Z,5
2023-04-18T21:27:58.359Z,5
2023-04-18T21:29:58.425Z,5
2023-04-18T21:31:58.611Z,5
2023-04-18T21:33:58.652Z,6
2023-04-18T21:35:58.760Z,5
2023-04-18T21:37:58.850Z,6
2023-04-18T21:39:58.985Z,5
2023-04-18T21:41:59.075Z,6
2023-04-18T21:43:59.191Z,5
2023-04-18T21:47:59.456Z,5
2023-04-18T21:49:59.602Z,5
2023-04-18T21:51:59.626Z,5
2023-04-18T21:53:59.844Z,5
2023-04-18T21:55:59.883Z,5
2023-04-18T21:57:59.953Z,6
2023-04-18T22:00:00.064Z,6
2023-04-18T22:02:00.196Z,5
2023-04-18T22:04:00.305Z,6
2023-04-18T22:06:00.387Z,6
2023-04-18T22:08:00.461Z,6
2023-04-18T22:10:00.576Z,6
2023-04-18T22:14:00.747Z,7
2023-04-18T22:16:00.882Z,6
2023-04-18T22:18:01.012Z,6
2023-04-18T22:20:01.078Z,6
2023-04-18T22:22:01.203Z,6
2023-04-18T22:24:01.386Z,7
2023-04-18T22:26:01.454Z,8
2023-04-18T22:28:01.609Z,7
2023-04-18T22:30:01.673Z,6
2023-04-18T22:32:01.757Z,6
2023-04-18T22:36:01.924Z,7
2023-04-18T22:38:02.099Z,7
2023-04-18T22:40:02.171Z,7
2023-04-18T22:42:02.224Z,9
2023-04-18T22:44:02.305Z,9
2023-04-18T22:46:02.475Z,10
2023-04-18T22:48:02.546Z,10
2023-04-18T22:50:02.656Z,10
2023-04-18T22:52:02.818Z,9
2023-04-18T22:54:02.825Z,9
2023-04-18T22:56:02.910Z,9
2023-04-18T22:58:03.009Z,8
2023-04-18T23:00:03.156Z,9
2023-04-18T23:04:03.499Z,9
2023-04-18T23:06:03.457Z,9
2023-04-18T23:08:03.522Z,9
2023-04-18T23:10:03.600Z,9
2023-04-18T23:12:03.745Z,10
2023-04-18T23:16:04.021Z,11
2023-04-18T23:18:04.073Z,10
2023-04-18T23:20:04.180Z,11
2023-04-18T23:22:04.244Z,11
2023-04-18T23:24:04.342Z,10
2023-04-18T23:26:04.451Z,11
2023-04-18T23:28:04.598Z,9
2023-04-18T23:30:04.639Z,9
2023-04-18T23:32:04.748Z,9
2023-04-18T23:34:04.848Z,9
2023-04-18T23:36:04.938Z,9
2023-04-18T23:38:05.065Z,9
2023-04-18T23:40:05.164Z,8
2023-04-18T23:44:05.332Z,8
2023-04-18T23:48:05.512Z,8
2023-04-18T23:50:05.607Z,8
2023-04-18T23:52:07.463Z,8
2023-04-18T23:54:05.792Z,8
2023-04-18T23:56:05.890Z,8
2023-04-18T23:58:06.000Z,8
